createdAt,value
2023-05-17T00:01:30.082Z,6.38
2023-05-17T00:06:33.042Z,6.78
2023-05-17T00:11:35.582Z,7.80
2023-05-17T00:16:38.356Z,6.35
2023-05-17T00:21:40.861Z,7.20
2023-05-17T00:26:43.380Z,7.72
2023-05-17T00:31:46.068Z,7.70
2023-05-17T00:36:48.666Z,6.95
2023-05-17T00:41:51.234Z,6.40
2023-05-17T00:46:53.810Z,7.50
2023-05-17T00:51:56.605Z,8.05
2023-05-17T00:57:01.146Z,8.93
2023-05-17T01:02:04.477Z,7.50
2023-05-17T01:07:07.432Z,8.23
2023-05-17T01:12:09.835Z,8.70
2023-05-17T01:17:17.100Z,8.60
2023-05-17T01:22:38.497Z,7.18
2023-05-17T01:27:41.974Z,7.80
2023-05-17T01:32:45.201Z,6.80
2023-05-17T01:37:47.852Z,8.57
2023-05-17T01:42:55.141Z,9.43
2023-05-17T01:47:58.850Z,9.70
2023-05-17T01:53:22.734Z,9.07
2023-05-17T01:58:26.373Z,9.18
2023-05-17T02:03:29.827Z,8.68
2023-05-17T02:08:32.396Z,7.30
2023-05-17T02:13:53.682Z,7.35
2023-05-17T02:19:15.608Z,8.32
2023-05-17T02:24:36.810Z,8.77
2023-05-17T02:29:59.450Z,8.50
2023-05-17T02:35:21.638Z,9.85
2023-05-17T02:40:45.000Z,9.05
2023-05-17T02:46:06.474Z,7.18
2023-05-17T02:51:27.472Z,8.35
2023-05-17T02:56:48.761Z,8.68
2023-05-17T03:02:11.671Z,7.70
2023-05-17T03:07:32.962Z,7.78
2023-05-17T03:12:54.321Z,9.52
2023-05-17T03:18:18.122Z,7.13
2023-05-17T03:23:39.286Z,7.47
2023-05-17T03:29:01.159Z,8.60
2023-05-17T03:34:22.291Z,7.18
2023-05-17T03:39:43.552Z,9.23
2023-05-17T03:45:05.242Z,7.85
2023-05-17T03:50:26.279Z,7.45
2023-05-17T03:55:47.866Z,9.77
2023-05-17T04:01:10.685Z,7.38
2023-05-17T04:06:31.893Z,8.77
2023-05-17T04:11:53.371Z,10.30
2023-05-17T04:17:16.332Z,9.27
2023-05-17T04:22:38.603Z,8.75
2023-05-17T04:27:59.515Z,9.50
2023-05-17T04:33:20.741Z,10.05
2023-05-17T04:38:41.797Z,10.43
2023-05-17T04:49:29.560Z,11.52
2023-05-17T04:54:52.462Z,8.48
2023-05-17T05:00:19.664Z,8.27
2023-05-17T05:05:46.534Z,7.47
2023-05-17T05:11:10.243Z,8.38
2023-05-17T05:16:32.470Z,8.65
2023-05-17T05:21:53.458Z,8.77
2023-05-17T05:27:14.492Z,9.20
2023-05-17T05:32:38.264Z,7.22
2023-05-17T05:38:00.374Z,8.60
2023-05-17T05:43:21.864Z,7.65
2023-05-17T05:48:43.753Z,8.05
2023-05-17T05:54:05.450Z,6.88
2023-05-17T05:59:26.506Z,6.93
2023-05-17T06:04:48.571Z,7.22
2023-05-17T06:10:09.975Z,8.15
2023-05-17T06:15:31.532Z,7.82
2023-05-17T06:20:52.561Z,7.35
2023-05-17T06:26:13.439Z,6.18
2023-05-17T06:31:34.580Z,5.25
2023-05-17T06:36:56.146Z,4.82
2023-05-17T06:42:17.414Z,6.60
2023-05-17T06:47:38.524Z,3.90
2023-05-17T06:52:59.810Z,5.20
2023-05-17T06:58:20.529Z,4.60
2023-05-17T07:03:41.575Z,5.15
2023-05-17T07:09:02.540Z,5.80
2023-05-17T07:14:23.372Z,5.55
2023-05-17T07:19:45.014Z,6.13
2023-05-17T07:25:07.149Z,5.65
2023-05-17T07:30:28.228Z,5.63
2023-05-17T07:35:49.364Z,6.50
2023-05-17T07:41:13.531Z,7.32
2023-05-17T07:46:34.521Z,7.63
2023-05-17T07:51:55.929Z,8.02
2023-05-17T07:57:16.919Z,6.93
2023-05-17T08:02:39.499Z,5.10
2023-05-17T08:08:01.884Z,6.95
2023-05-17T08:13:24.026Z,6.88
2023-05-17T08:18:45.253Z,6.68
2023-05-17T08:24:06.475Z,6.78
2023-05-17T08:29:27.160Z,7.22
2023-05-17T08:34:48.188Z,6.90
2023-05-17T08:40:09.243Z,6.82
2023-05-17T08:45:12.220Z,7.40
2023-05-17T08:50:14.630Z,7.22
2023-05-17T08:55:17.010Z,9.38
2023-05-17T09:00:22.151Z,7.63
2023-05-17T09:05:24.541Z,9.82
2023-05-17T09:10:27.361Z,7.65
2023-05-17T09:15:34.449Z,8.38
2023-05-17T09:20:37.306Z,8.02
2023-05-17T09:25:47.016Z,9.18
2023-05-17T09:30:49.985Z,9.02
2023-05-17T09:35:52.369Z,7.70
2023-05-17T09:40:54.806Z,7.60
2023-05-17T09:45:58.253Z,9.55
2023-05-17T09:51:00.851Z,7.82
2023-05-17T09:56:04.813Z,9.75
2023-05-17T10:01:07.707Z,7.35
2023-05-17T10:06:19.671Z,9.50
2023-05-17T10:11:35.004Z,9.32
2023-05-17T10:16:40.347Z,7.78
2023-05-17T10:26:45.824Z,10.20
2023-05-17T10:31:49.161Z,9.02
2023-05-17T10:36:52.327Z,9.68
2023-05-17T10:42:07.168Z,8.80
2023-05-17T10:47:16.652Z,10.52
2023-05-17T10:52:19.691Z,9.02
2023-05-17T10:57:23.465Z,7.88
2023-05-17T11:02:27.087Z,9.77
2023-05-17T11:07:32.598Z,8.20
2023-05-17T11:12:38.491Z,10.07
2023-05-17T11:17:52.203Z,8.13
2023-05-17T11:23:08.019Z,10.13
2023-05-17T11:28:18.254Z,10.55
2023-05-17T11:33:33.314Z,9.73
2023-05-17T11:38:37.017Z,9.95
2023-05-17T11:43:39.306Z,8.30
2023-05-17T11:48:41.677Z,8.32
2023-05-17T11:53:44.860Z,9.00
2023-05-17T11:58:51.004Z,8.77
2023-05-17T12:03:59.652Z,8.18
2023-05-17T12:09:03.316Z,10.73
2023-05-17T12:14:06.141Z,9.98
2023-05-17T12:19:17.753Z,10.40
2023-05-17T12:24:20.259Z,8.57
2023-05-17T12:29:23.621Z,10.55
2023-05-17T12:34:26.357Z,8.05
2023-05-17T12:39:29.388Z,10.07
2023-05-17T12:44:31.790Z,7.40
2023-05-17T12:49:38.490Z,9.02
2023-05-17T12:54:41.393Z,6.82
2023-05-17T12:59:48.204Z,8.77
2023-05-17T13:04:50.616Z,7.30
2023-05-17T13:09:52.984Z,6.60
2023-05-17T13:14:55.567Z,6.65
2023-05-17T13:19:58.526Z,6.03
2023-05-17T13:25:03.330Z,6.22
2023-05-17T13:35:09.252Z,5.90
2023-05-17T13:40:11.801Z,5.72
2023-05-17T13:45:14.326Z,6.70
2023-05-17T13:50:17.698Z,6.65
2023-05-17T13:55:20.130Z,5.03
2023-05-17T14:00:23.174Z,4.53
2023-05-17T14:05:25.621Z,5.60
2023-05-17T14:10:28.208Z,4.70
2023-05-17T14:15:30.887Z,4.20
2023-05-17T14:20:33.578Z,6.07
2023-05-17T14:25:36.323Z,5.47
2023-05-17T14:30:38.772Z,6.53
2023-05-17T14:35:41.441Z,6.22
2023-05-17T14:40:43.854Z,6.13
2023-05-17T14:45:46.462Z,6.13
2023-05-17T14:50:48.922Z,5.97
2023-05-17T14:55:51.258Z,7.13
2023-05-17T15:01:05.505Z,6.97
2023-05-17T15:06:11.877Z,5.57
2023-05-17T15:11:14.516Z,6.85
2023-05-17T15:16:17.111Z,6.70
2023-05-17T15:21:19.483Z,6.72
2023-05-17T15:26:23.572Z,7.78
2023-05-17T15:31:26.148Z,6.50
2023-05-17T15:36:28.564Z,7.03
2023-05-17T15:41:31.896Z,7.25
2023-05-17T15:46:34.362Z,5.43
2023-05-17T15:51:37.080Z,5.88
2023-05-17T15:56:39.634Z,4.60
2023-05-17T16:01:42.607Z,4.53
2023-05-17T16:06:45.312Z,3.85
2023-05-17T16:11:47.866Z,4.25
2023-05-17T16:16:51.582Z,3.97
2023-05-17T16:21:54.132Z,5.57
2023-05-17T16:26:56.999Z,4.60
2023-05-17T16:31:59.472Z,6.20
2023-05-17T16:37:02.011Z,5.45
2023-05-17T16:42:04.687Z,5.97
2023-05-17T16:47:07.339Z,6.85
2023-05-17T16:52:09.763Z,5.43
2023-05-17T16:57:12.377Z,6.60
2023-05-17T17:02:14.952Z,5.28
2023-05-17T17:07:17.551Z,5.80
2023-05-17T17:12:24.574Z,6.28
2023-05-17T17:17:29.680Z,5.95
2023-05-17T17:22:32.522Z,6.00
2023-05-17T17:27:35.662Z,5.15
2023-05-17T17:32:38.088Z,6.93
2023-05-17T17:37:40.839Z,5.60
2023-05-17T17:42:43.186Z,7.15
2023-05-17T17:47:45.781Z,6.47
2023-05-17T17:52:50.276Z,7.03
2023-05-17T17:57:52.728Z,6.95
2023-05-17T18:02:57.223Z,7.85
2023-05-17T18:07:59.711Z,5.45
2023-05-17T18:13:02.082Z,6.72
2023-05-17T18:18:04.534Z,5.07
2023-05-17T18:23:07.012Z,6.25
2023-05-17T18:28:09.500Z,5.47
2023-05-17T18:33:11.916Z,5.10
2023-05-17T18:38:14.410Z,6.53
2023-05-17T18:43:16.951Z,5.35
2023-05-17T18:48:22.352Z,4.93
2023-05-17T18:53:24.936Z,5.40
2023-05-17T18:58:27.567Z,5.00
2023-05-17T19:03:30.155Z,6.05
2023-05-17T19:08:33.132Z,5.68
2023-05-17T19:13:35.537Z,5.55
2023-05-17T19:18:38.056Z,5.05
2023-05-17T19:23:40.503Z,4.85
2023-05-17T19:28:42.883Z,4.65
2023-05-17T19:33:45.433Z,3.97
2023-05-17T19:38:49.884Z,4.22
2023-05-17T19:43:53.758Z,4.35
2023-05-17T19:48:57.723Z,6.18
2023-05-17T19:54:00.194Z,4.45
2023-05-17T19:59:04.181Z,5.38
2023-05-17T20:04:06.800Z,4.32
2023-05-17T20:09:09.378Z,3.40
2023-05-17T20:14:12.651Z,4.60
2023-05-17T20:19:15.094Z,3.65
2023-05-17T20:24:17.579Z,3.20
2023-05-17T20:29:19.992Z,3.80
2023-05-17T20:34:28.486Z,2.80
2023-05-17T20:39:31.439Z,3.10
2023-05-17T20:44:34.716Z,3.78
2023-05-17T20:49:37.190Z,3.38
2023-05-17T20:54:39.748Z,5.05
2023-05-17T20:59:42.641Z,3.22
2023-05-17T21:04:44.986Z,2.85
2023-05-17T21:09:50.130Z,4.22
2023-05-17T21:15:07.840Z,3.30
2023-05-17T21:20:14.854Z,3.83
2023-05-17T21:25:18.324Z,2.22
2023-05-17T21:30:20.994Z,2.65
2023-05-17T21:35:23.666Z,3.28
2023-05-17T21:40:26.311Z,3.42
2023-05-17T21:45:28.795Z,3.33
2023-05-17T21:50:31.696Z,3.42
2023-05-17T21:55:45.773Z,3.17
2023-05-17T22:00:57.440Z,2.75
2023-05-17T22:06:00.514Z,1.80
2023-05-17T22:11:03.061Z,2.90
2023-05-17T22:16:06.439Z,2.08
2023-05-17T22:21:09.258Z,2.25
2023-05-17T22:26:11.819Z,4.95
2023-05-17T22:31:19.854Z,6.60
2023-05-17T22:36:25.086Z,8.25
2023-05-17T22:41:27.940Z,5.68
2023-05-17T22:46:32.356Z,5.25
2023-05-17T22:51:35.638Z,4.82
2023-05-17T22:56:38.272Z,4.75
2023-05-17T23:01:40.731Z,4.43
2023-05-17T23:06:43.369Z,5.03
2023-05-17T23:11:45.891Z,4.00
2023-05-17T23:16:48.623Z,4.05
2023-05-17T23:21:51.609Z,3.20
2023-05-17T23:26:56.303Z,3.15
2023-05-17T23:31:58.840Z,2.17
2023-05-17T23:37:01.184Z,3.28
2023-05-17T23:42:04.108Z,3.63
2023-05-17T23:47:06.576Z,3.10
2023-05-17T23:52:11.829Z,3.15
2023-05-17T23:57:14.432Z,3.03
